sensor_id;sensor_type;location;lat;lon;timestamp;noise_LAeq;noise_LA_min;noise_LA_max;noise_LA01;noise_LA95
40465;Laerm;30489;48.982;8.394;2024-03-17T00:00:14;39.59;37.32;41.14;;
40465;Laerm;30489;48.982;8.394;2024-03-17T00:02:25;39.61;37.52;41.06;;
40465;Laerm;30489;48.982;8.394;2024-03-17T00:04:35;39.61;37.88;41.30;;
40465;Laerm;30489;48.982;8.394;2024-03-17T00:06:45;39.61;36.91;41.38;;
40465;Laerm;30489;48.982;8.394;2024-03-17T00:08:55;39.63;37.88;41.46;;
40465;Laerm;30489;48.982;8.394;2024-03-17T00:11:05;39.60;37.88;41.06;;
40465;Laerm;30489;48.982;8.394;2024-03-17T00:13:16;39.58;37.12;41.46;;
40465;Laerm;30489;48.982;8.394;2024-03-17T00:15:26;39.56;37.32;41.30;;
40465;Laerm;30489;48.982;8.394;2024-03-17T00:17:37;39.59;37.52;41.53;;
40465;Laerm;30489;48.982;8.394;2024-03-17T00:19:47;39.60;37.52;41.14;;
40465;Laerm;30489;48.982;8.394;2024-03-17T00:21:57;39.63;37.88;41.33;;
40465;Laerm;30489;48.982;8.394;2024-03-17T00:24:07;39.60;37.53;41.22;;
40465;Laerm;30489;48.982;8.394;2024-03-17T00:26:19;39.61;37.70;41.22;;
40465;Laerm;30489;48.982;8.394;2024-03-17T00:28:32;39.61;37.88;41.06;;
40465;Laerm;30489;48.982;8.394;2024-03-17T00:30:42;39.61;37.88;41.46;;
40465;Laerm;30489;48.982;8.394;2024-03-17T00:32:52;39.61;37.87;41.22;;
40465;Laerm;30489;48.982;8.394;2024-03-17T00:35:02;39.61;37.70;41.22;;
40465;Laerm;30489;48.982;8.394;2024-03-17T00:37:14;39.63;37.70;41.53;;
40465;Laerm;30489;48.982;8.394;2024-03-17T00:39:25;39.62;37.52;41.30;;
40465;Laerm;30489;48.982;8.394;2024-03-17T00:41:35;39.63;37.87;41.22;;
40465;Laerm;30489;48.982;8.394;2024-03-17T00:43:45;39.61;37.32;41.38;;
40465;Laerm;30489;48.982;8.394;2024-03-17T00:45:55;39.61;37.88;41.30;;
40465;Laerm;30489;48.982;8.394;2024-03-17T00:48:06;39.57;37.52;41.06;;
40465;Laerm;30489;48.982;8.394;2024-03-17T00:50:16;39.58;37.70;41.14;;
40465;Laerm;30489;48.982;8.394;2024-03-17T00:52:26;39.57;37.88;40.98;;
40465;Laerm;30489;48.982;8.394;2024-03-17T00:54:37;39.60;37.70;41.38;;
40465;Laerm;30489;48.982;8.394;2024-03-17T00:56:47;39.57;37.70;41.38;;
40465;Laerm;30489;48.982;8.394;2024-03-17T00:58:57;39.57;37.52;41.30;;
40465;Laerm;30489;48.982;8.394;2024-03-17T01:01:08;39.61;37.70;41.14;;
40465;Laerm;30489;48.982;8.394;2024-03-17T01:03:18;39.61;37.52;41.06;;
40465;Laerm;30489;48.982;8.394;2024-03-17T01:05:28;39.56;37.70;41.22;;
40465;Laerm;30489;48.982;8.394;2024-03-17T01:07:39;39.57;37.88;41.38;;
40465;Laerm;30489;48.982;8.394;2024-03-17T01:09:49;39.57;37.52;41.53;;
40465;Laerm;30489;48.982;8.394;2024-03-17T01:11:59;39.58;37.70;41.61;;
40465;Laerm;30489;48.982;8.394;2024-03-17T01:14:10;39.56;37.70;41.14;;
40465;Laerm;30489;48.982;8.394;2024-03-17T01:16:20;39.51;37.70;41.06;;
40465;Laerm;30489;48.982;8.394;2024-03-17T01:18:30;39.54;37.70;41.14;;
40465;Laerm;30489;48.982;8.394;2024-03-17T01:20:41;39.54;37.12;41.14;;
40465;Laerm;30489;48.982;8.394;2024-03-17T01:22:51;39.52;37.70;41.14;;
40465;Laerm;30489;48.982;8.394;2024-03-17T01:25:01;39.52;37.70;41.22;;
40465;Laerm;30489;48.982;8.394;2024-03-17T01:27:12;39.55;37.12;41.30;;
40465;Laerm;30489;48.982;8.394;2024-03-17T01:29:24;39.53;37.70;41.14;;
40465;Laerm;30489;48.982;8.394;2024-03-17T01:31:35;39.54;37.32;41.30;;
40465;Laerm;30489;48.982;8.394;2024-03-17T01:33:45;39.56;37.52;41.11;;
40465;Laerm;30489;48.982;8.394;2024-03-17T01:35:56;39.57;37.70;41.14;;
40465;Laerm;30489;48.982;8.394;2024-03-17T01:38:06;39.58;37.32;41.38;;
40465;Laerm;30489;48.982;8.394;2024-03-17T01:40:17;39.57;37.52;41.14;;
40465;Laerm;30489;48.982;8.394;2024-03-17T01:42:27;39.55;37.52;41.06;;
40465;Laerm;30489;48.982;8.394;2024-03-17T01:44:39;39.56;37.32;41.30;;
40465;Laerm;30489;48.982;8.394;2024-03-17T01:46:50;39.58;37.12;41.14;;
40465;Laerm;30489;48.982;8.394;2024-03-17T01:49:00;39.56;37.52;40.98;;
40465;Laerm;30489;48.982;8.394;2024-03-17T01:51:10;39.56;37.32;41.14;;
40465;Laerm;30489;48.982;8.394;2024-03-17T01:53:21;39.52;37.52;41.38;;
40465;Laerm;30489;48.982;8.394;2024-03-17T01:55:35;39.54;37.70;41.06;;
40465;Laerm;30489;48.982;8.394;2024-03-17T01:57:46;39.52;37.52;41.46;;
40465;Laerm;30489;48.982;8.394;2024-03-17T01:59:57;39.54;37.70;41.14;;
40465;Laerm;30489;48.982;8.394;2024-03-17T02:02:07;39.53;37.52;40.96;;
40465;Laerm;30489;48.982;8.394;2024-03-17T02:04:17;39.54;37.52;41.46;;
40465;Laerm;30489;48.982;8.394;2024-03-17T02:06:27;39.52;37.70;40.98;;
40465;Laerm;30489;48.982;8.394;2024-03-17T02:08:47;39.54;37.32;41.14;;
40465;Laerm;30489;48.982;8.394;2024-03-17T02:10:58;39.52;37.52;41.26;;
40465;Laerm;30489;48.982;8.394;2024-03-17T02:13:08;39.52;37.52;41.46;;
40465;Laerm;30489;48.982;8.394;2024-03-17T02:15:19;39.52;37.52;41.14;;
40465;Laerm;30489;48.982;8.394;2024-03-17T02:17:29;39.52;37.32;41.38;;
40465;Laerm;30489;48.982;8.394;2024-03-17T02:19:39;39.50;37.70;41.06;;
40465;Laerm;30489;48.982;8.394;2024-03-17T02:21:50;39.50;37.52;41.06;;
40465;Laerm;30489;48.982;8.394;2024-03-17T02:24:00;39.48;37.52;41.14;;
40465;Laerm;30489;48.982;8.394;2024-03-17T02:26:11;39.48;37.52;41.14;;
40465;Laerm;30489;48.982;8.394;2024-03-17T02:28:21;39.46;36.91;41.14;;
40465;Laerm;30489;48.982;8.394;2024-03-17T02:30:31;39.48;37.12;41.06;;
40465;Laerm;30489;48.982;8.394;2024-03-17T02:32:41;39.50;37.52;41.14;;
40465;Laerm;30489;48.982;8.394;2024-03-17T02:34:52;39.48;37.53;40.98;;
40465;Laerm;30489;48.982;8.394;2024-03-17T02:37:02;39.50;37.32;41.38;;
40465;Laerm;30489;48.982;8.394;2024-03-17T02:39:13;39.49;37.70;41.14;;
40465;Laerm;30489;48.982;8.394;2024-03-17T02:41:43;39.49;37.52;41.14;;
40465;Laerm;30489;48.982;8.394;2024-03-17T02:43:53;39.48;37.70;41.30;;
40465;Laerm;30489;48.982;8.394;2024-03-17T02:46:03;39.45;37.52;41.06;;
40465;Laerm;30489;48.982;8.394;2024-03-17T02:48:14;39.45;37.32;41.06;;
40465;Laerm;30489;48.982;8.394;2024-03-17T02:50:25;39.46;37.70;41.06;;
40465;Laerm;30489;48.982;8.394;2024-03-17T02:52:35;39.45;36.69;40.98;;
40465;Laerm;30489;48.982;8.394;2024-03-17T02:54:45;39.46;37.52;41.14;;
40465;Laerm;30489;48.982;8.394;2024-03-17T02:56:56;39.47;37.52;41.22;;
40465;Laerm;30489;48.982;8.394;2024-03-17T02:59:06;39.47;36.91;41.14;;
40465;Laerm;30489;48.982;8.394;2024-03-17T03:01:16;39.47;37.52;41.06;;
40465;Laerm;30489;48.982;8.394;2024-03-17T03:03:27;39.47;37.70;41.06;;
40465;Laerm;30489;48.982;8.394;2024-03-17T03:05:37;39.47;37.52;41.14;;
40465;Laerm;30489;48.982;8.394;2024-03-17T03:07:48;39.46;37.52;41.46;;
40465;Laerm;30489;48.982;8.394;2024-03-17T03:09:58;39.47;37.12;41.30;;
40465;Laerm;30489;48.982;8.394;2024-03-17T03:12:08;39.46;37.52;40.89;;
40465;Laerm;30489;48.982;8.394;2024-03-17T03:14:19;39.46;37.32;41.46;;
40465;Laerm;30489;48.982;8.394;2024-03-17T03:16:29;39.46;37.32;41.22;;
40465;Laerm;30489;48.982;8.394;2024-03-17T03:18:40;39.48;37.52;41.14;;
40465;Laerm;30489;48.982;8.394;2024-03-17T03:20:50;39.47;37.70;41.68;;
40465;Laerm;30489;48.982;8.394;2024-03-17T03:23:01;39.46;37.32;41.06;;
40465;Laerm;30489;48.982;8.394;2024-03-17T03:25:12;39.47;37.70;41.22;;
40465;Laerm;30489;48.982;8.394;2024-03-17T03:27:22;39.46;37.52;41.14;;
40465;Laerm;30489;48.982;8.394;2024-03-17T03:29:34;39.49;37.52;41.22;;
40465;Laerm;30489;48.982;8.394;2024-03-17T03:31:44;39.49;37.52;41.30;;
40465;Laerm;30489;48.982;8.394;2024-03-17T03:33:54;39.50;37.52;41.22;;
40465;Laerm;30489;48.982;8.394;2024-03-17T03:36:10;39.50;37.52;41.11;;
40465;Laerm;30489;48.982;8.394;2024-03-17T03:38:21;39.49;36.91;41.30;;
40465;Laerm;30489;48.982;8.394;2024-03-17T03:40:32;39.49;37.52;40.98;;
40465;Laerm;30489;48.982;8.394;2024-03-17T03:42:43;39.49;37.52;40.98;;
40465;Laerm;30489;48.982;8.394;2024-03-17T03:44:53;39.47;37.52;41.22;;
40465;Laerm;30489;48.982;8.394;2024-03-17T03:47:03;39.46;36.91;41.06;;
40465;Laerm;30489;48.982;8.394;2024-03-17T03:49:13;39.44;37.12;41.06;;
40465;Laerm;30489;48.982;8.394;2024-03-17T03:51:24;39.44;37.17;49.87;;
40465;Laerm;30489;48.982;8.394;2024-03-17T03:53:34;39.41;37.52;41.14;;
40465;Laerm;30489;48.982;8.394;2024-03-17T03:55:44;39.41;37.12;41.06;;
40465;Laerm;30489;48.982;8.394;2024-03-17T03:57:54;39.40;36.91;41.14;;
40465;Laerm;30489;48.982;8.394;2024-03-17T04:00:05;39.42;37.32;41.06;;
40465;Laerm;30489;48.982;8.394;2024-03-17T04:02:22;39.45;37.32;41.14;;
40465;Laerm;30489;48.982;8.394;2024-03-17T04:04:33;39.43;36.91;41.06;;
40465;Laerm;30489;48.982;8.394;2024-03-17T04:06:43;39.44;37.32;40.98;;
40465;Laerm;30489;48.982;8.394;2024-03-17T04:08:53;39.43;36.45;40.98;;
40465;Laerm;30489;48.982;8.394;2024-03-17T04:11:03;39.42;37.32;41.14;;
40465;Laerm;30489;48.982;8.394;2024-03-17T04:13:14;39.38;37.12;41.06;;
40465;Laerm;30489;48.982;8.394;2024-03-17T04:15:24;39.39;37.12;40.89;;
40465;Laerm;30489;48.982;8.394;2024-03-17T04:17:35;39.38;37.32;41.22;;
40465;Laerm;30489;48.982;8.394;2024-03-17T04:19:45;39.38;37.70;40.98;;
40465;Laerm;30489;48.982;8.394;2024-03-17T04:21:55;39.38;37.32;41.06;;
40465;Laerm;30489;48.982;8.394;2024-03-17T04:24:06;39.36;36.91;40.98;;
40465;Laerm;30489;48.982;8.394;2024-03-17T04:26:16;39.38;37.32;40.89;;
40465;Laerm;30489;48.982;8.394;2024-03-17T04:28:26;39.35;37.32;41.06;;
40465;Laerm;30489;48.982;8.394;2024-03-17T04:30:37;39.37;37.32;40.98;;
40465;Laerm;30489;48.982;8.394;2024-03-17T04:32:47;39.39;37.32;41.14;;
40465;Laerm;30489;48.982;8.394;2024-03-17T04:34:57;39.37;36.91;40.98;;
40465;Laerm;30489;48.982;8.394;2024-03-17T04:37:07;39.37;37.12;40.98;;
40465;Laerm;30489;48.982;8.394;2024-03-17T04:39:17;39.37;37.52;40.98;;
40465;Laerm;30489;48.982;8.394;2024-03-17T04:41:28;39.37;37.32;41.22;;
40465;Laerm;30489;48.982;8.394;2024-03-17T04:43:38;39.38;37.12;40.98;;
40465;Laerm;30489;48.982;8.394;2024-03-17T04:45:48;39.36;37.32;40.98;;
40465;Laerm;30489;48.982;8.394;2024-03-17T04:47:59;39.37;37.52;40.98;;
40465;Laerm;30489;48.982;8.394;2024-03-17T04:50:09;39.38;37.32;41.22;;
40465;Laerm;30489;48.982;8.394;2024-03-17T04:52:19;39.36;37.12;41.46;;
40465;Laerm;30489;48.982;8.394;2024-03-17T04:54:33;39.37;37.32;41.22;;
40465;Laerm;30489;48.982;8.394;2024-03-17T04:56:43;39.39;37.52;41.22;;
40465;Laerm;30489;48.982;8.394;2024-03-17T04:58:54;39.37;37.52;40.98;;
40465;Laerm;30489;48.982;8.394;2024-03-17T05:01:05;39.37;37.32;40.98;;
40465;Laerm;30489;48.982;8.394;2024-03-17T05:03:16;39.36;36.69;41.38;;
40465;Laerm;30489;48.982;8.394;2024-03-17T05:05:26;39.37;37.52;41.06;;
40465;Laerm;30489;48.982;8.394;2024-03-17T05:07:36;39.33;37.12;40.89;;
40465;Laerm;30489;48.982;8.394;2024-03-17T05:09:47;39.33;37.12;41.06;;
40465;Laerm;30489;48.982;8.394;2024-03-17T05:11:57;39.34;37.12;41.06;;
40465;Laerm;30489;48.982;8.394;2024-03-17T05:14:08;39.33;37.32;40.98;;
40465;Laerm;30489;48.982;8.394;2024-03-17T05:16:18;39.34;36.69;40.98;;
40465;Laerm;30489;48.982;8.394;2024-03-17T05:18:29;39.35;36.91;40.89;;
40465;Laerm;30489;48.982;8.394;2024-03-17T05:20:42;39.36;37.32;40.80;;
40465;Laerm;30489;48.982;8.394;2024-03-17T05:22:52;39.37;37.12;41.38;;
40465;Laerm;30489;48.982;8.394;2024-03-17T05:25:03;39.39;37.32;41.06;;
40465;Laerm;30489;48.982;8.394;2024-03-17T05:27:13;39.36;36.91;40.98;;
40465;Laerm;30489;48.982;8.394;2024-03-17T05:29:23;39.36;36.91;41.22;;
40465;Laerm;30489;48.982;8.394;2024-03-17T05:31:33;39.33;37.32;41.06;;
40465;Laerm;30489;48.982;8.394;2024-03-17T05:33:44;39.35;37.52;40.89;;
40465;Laerm;30489;48.982;8.394;2024-03-17T05:35:55;39.33;37.32;40.98;;
40465;Laerm;30489;48.982;8.394;2024-03-17T05:38:05;39.35;37.32;41.22;;
40465;Laerm;30489;48.982;8.394;2024-03-17T05:40:20;39.39;37.32;40.89;;
40465;Laerm;30489;48.982;8.394;2024-03-17T05:42:30;39.36;36.91;41.06;;
40465;Laerm;30489;48.982;8.394;2024-03-17T05:44:42;39.36;37.32;40.98;;
40465;Laerm;30489;48.982;8.394;2024-03-17T05:47:03;39.35;37.32;41.06;;
40465;Laerm;30489;48.982;8.394;2024-03-17T05:49:14;39.33;37.12;41.06;;
40465;Laerm;30489;48.982;8.394;2024-03-17T05:51:24;39.33;37.52;40.80;;
40465;Laerm;30489;48.982;8.394;2024-03-17T05:53:37;39.35;36.91;41.46;;
40465;Laerm;30489;48.982;8.394;2024-03-17T05:55:50;39.34;37.52;40.89;;
40465;Laerm;30489;48.982;8.394;2024-03-17T05:58:00;39.32;37.12;41.06;;
40465;Laerm;30489;48.982;8.394;2024-03-17T06:00:11;39.37;37.52;41.14;;
40465;Laerm;30489;48.982;8.394;2024-03-17T06:02:25;39.34;37.12;41.14;;
40465;Laerm;30489;48.982;8.394;2024-03-17T06:04:35;39.30;37.32;41.06;;
40465;Laerm;30489;48.982;8.394;2024-03-17T06:06:45;39.33;37.12;41.06;;
40465;Laerm;30489;48.982;8.394;2024-03-17T06:08:56;39.32;36.91;41.22;;
40465;Laerm;30489;48.982;8.394;2024-03-17T06:11:06;39.32;37.32;41.38;;
40465;Laerm;30489;48.982;8.394;2024-03-17T06:13:16;39.32;37.52;40.89;;
40465;Laerm;30489;48.982;8.394;2024-03-17T06:15:27;39.30;37.12;41.06;;
40465;Laerm;30489;48.982;8.394;2024-03-17T06:17:37;39.30;37.32;40.89;;
40465;Laerm;30489;48.982;8.394;2024-03-17T06:19:47;39.29;37.12;40.98;;
40465;Laerm;30489;48.982;8.394;2024-03-17T06:21:57;39.27;37.12;41.06;;
40465;Laerm;30489;48.982;8.394;2024-03-17T06:24:07;39.25;36.91;41.14;;
40465;Laerm;30489;48.982;8.394;2024-03-17T06:26:18;39.26;37.12;40.98;;
40465;Laerm;30489;48.982;8.394;2024-03-17T06:28:28;39.26;37.12;40.98;;
40465;Laerm;30489;48.982;8.394;2024-03-17T06:30:43;39.25;37.32;41.53;;
40465;Laerm;30489;48.982;8.394;2024-03-17T06:32:53;39.23;37.12;41.14;;
40465;Laerm;30489;48.982;8.394;2024-03-17T06:35:04;39.24;36.91;40.98;;
40465;Laerm;30489;48.982;8.394;2024-03-17T06:37:14;39.21;37.32;41.14;;
40465;Laerm;30489;48.982;8.394;2024-03-17T06:39:24;39.21;37.12;40.80;;
40465;Laerm;30489;48.982;8.394;2024-03-17T06:41:35;39.21;37.12;41.14;;
40465;Laerm;30489;48.982;8.394;2024-03-17T06:43:45;39.22;36.69;40.98;;
40465;Laerm;30489;48.982;8.394;2024-03-17T06:45:59;39.22;36.91;40.98;;
40465;Laerm;30489;48.982;8.394;2024-03-17T06:48:09;39.21;37.32;41.22;;
40465;Laerm;30489;48.982;8.394;2024-03-17T06:50:20;39.23;37.32;40.98;;
40465;Laerm;30489;48.982;8.394;2024-03-17T06:52:30;39.21;37.12;41.06;;
40465;Laerm;30489;48.982;8.394;2024-03-17T06:54:41;39.19;37.12;40.89;;
40465;Laerm;30489;48.982;8.394;2024-03-17T06:56:51;39.21;37.12;40.98;;
40465;Laerm;30489;48.982;8.394;2024-03-17T06:59:01;39.20;37.12;41.06;;
40465;Laerm;30489;48.982;8.394;2024-03-17T07:01:12;39.19;36.69;40.80;;
40465;Laerm;30489;48.982;8.394;2024-03-17T07:03:23;39.20;36.69;41.03;;
40465;Laerm;30489;48.982;8.394;2024-03-17T07:05:33;39.18;37.12;41.22;;
40465;Laerm;30489;48.982;8.394;2024-03-17T07:07:43;39.20;36.91;40.89;;
40465;Laerm;30489;48.982;8.394;2024-03-17T07:09:54;39.20;36.91;40.98;;
40465;Laerm;30489;48.982;8.394;2024-03-17T07:12:04;39.18;37.12;40.98;;
40465;Laerm;30489;48.982;8.394;2024-03-17T07:14:15;39.21;37.12;40.80;;
40465;Laerm;30489;48.982;8.394;2024-03-17T07:16:25;39.22;37.32;41.06;;
40465;Laerm;30489;48.982;8.394;2024-03-17T07:18:35;39.24;36.91;41.03;;
40465;Laerm;30489;48.982;8.394;2024-03-17T07:20:47;39.26;37.12;41.14;;
40465;Laerm;30489;48.982;8.394;2024-03-17T07:22:58;39.28;37.12;40.98;;
40465;Laerm;30489;48.982;8.394;2024-03-17T07:25:08;39.30;37.12;40.98;;
40465;Laerm;30489;48.982;8.394;2024-03-17T07:27:19;39.30;37.32;40.98;;
40465;Laerm;30489;48.982;8.394;2024-03-17T07:29:29;39.34;36.91;40.98;;
40465;Laerm;30489;48.982;8.394;2024-03-17T07:31:39;39.35;37.12;41.22;;
40465;Laerm;30489;48.982;8.394;2024-03-17T07:33:49;39.36;37.32;41.06;;
40465;Laerm;30489;48.982;8.394;2024-03-17T07:35:59;39.37;37.32;41.06;;
40465;Laerm;30489;48.982;8.394;2024-03-17T07:38:10;39.37;37.32;41.06;;
40465;Laerm;30489;48.982;8.394;2024-03-17T07:40:20;39.37;37.32;41.06;;
40465;Laerm;30489;48.982;8.394;2024-03-17T07:42:31;39.39;37.32;40.80;;
40465;Laerm;30489;48.982;8.394;2024-03-17T07:44:44;39.41;37.32;41.06;;
40465;Laerm;30489;48.982;8.394;2024-03-17T07:46:55;39.41;37.12;41.06;;
40465;Laerm;30489;48.982;8.394;2024-03-17T07:49:05;39.43;37.52;41.14;;
40465;Laerm;30489;48.982;8.394;2024-03-17T07:51:16;39.44;37.32;41.22;;
40465;Laerm;30489;48.982;8.394;2024-03-17T07:53:27;39.42;36.91;41.14;;
40465;Laerm;30489;48.982;8.394;2024-03-17T07:55:37;39.42;36.69;41.22;;
40465;Laerm;30489;48.982;8.394;2024-03-17T07:57:47;39.46;37.32;41.22;;
40465;Laerm;30489;48.982;8.394;2024-03-17T07:59:57;39.46;37.32;41.22;;
40465;Laerm;30489;48.982;8.394;2024-03-17T08:02:07;39.46;37.32;41.22;;
40465;Laerm;30489;48.982;8.394;2024-03-17T08:04:18;39.45;37.32;40.98;;
40465;Laerm;30489;48.982;8.394;2024-03-17T08:06:28;39.46;37.32;41.14;;
40465;Laerm;30489;48.982;8.394;2024-03-17T08:08:38;39.47;37.32;41.06;;
40465;Laerm;30489;48.982;8.394;2024-03-17T08:10:49;39.48;37.52;41.46;;
40465;Laerm;30489;48.982;8.394;2024-03-17T08:12:59;39.51;37.32;41.30;;
40465;Laerm;30489;48.982;8.394;2024-03-17T08:15:09;39.52;37.52;41.14;;
40465;Laerm;30489;48.982;8.394;2024-03-17T08:17:19;39.55;37.52;41.38;;
40465;Laerm;30489;48.982;8.394;2024-03-17T08:19:29;39.54;37.32;40.98;;
40465;Laerm;30489;48.982;8.394;2024-03-17T08:21:40;39.56;37.70;41.14;;
40465;Laerm;30489;48.982;8.394;2024-03-17T08:23:50;39.57;37.70;41.22;;
40465;Laerm;30489;48.982;8.394;2024-03-17T08:26:01;39.60;37.32;41.46;;
40465;Laerm;30489;48.982;8.394;2024-03-17T08:28:11;39.59;37.70;41.06;;
40465;Laerm;30489;48.982;8.394;2024-03-17T08:30:21;39.59;37.52;41.38;;
40465;Laerm;30489;48.982;8.394;2024-03-17T08:32:31;39.62;37.70;41.22;;
40465;Laerm;30489;48.982;8.394;2024-03-17T08:34:41;39.64;37.70;41.30;;
40465;Laerm;30489;48.982;8.394;2024-03-17T08:36:56;39.65;37.52;41.14;;
40465;Laerm;30489;48.982;8.394;2024-03-17T08:39:06;39.65;37.52;41.38;;
40465;Laerm;30489;48.982;8.394;2024-03-17T08:41:19;39.63;37.70;41.14;;
40465;Laerm;30489;48.982;8.394;2024-03-17T08:43:30;39.63;37.32;41.14;;
40465;Laerm;30489;48.982;8.394;2024-03-17T08:45:41;39.62;37.88;41.22;;
40465;Laerm;30489;48.982;8.394;2024-03-17T08:47:51;39.67;37.88;41.22;;
40465;Laerm;30489;48.982;8.394;2024-03-17T08:50:02;39.64;37.70;41.68;;
40465;Laerm;30489;48.982;8.394;2024-03-17T08:52:14;39.64;37.70;41.38;;
40465;Laerm;30489;48.982;8.394;2024-03-17T08:54:24;39.67;37.88;41.14;;
40465;Laerm;30489;48.982;8.394;2024-03-17T08:56:34;39.67;37.52;41.46;;
40465;Laerm;30489;48.982;8.394;2024-03-17T08:58:45;39.66;37.70;41.22;;
40465;Laerm;30489;48.982;8.394;2024-03-17T09:00:55;39.67;37.70;41.03;;
40465;Laerm;30489;48.982;8.394;2024-03-17T09:03:06;39.71;37.70;41.46;;
40465;Laerm;30489;48.982;8.394;2024-03-17T09:05:20;39.72;37.88;41.30;;
40465;Laerm;30489;48.982;8.394;2024-03-17T09:07:30;39.73;37.87;41.61;;
40465;Laerm;30489;48.982;8.394;2024-03-17T09:09:43;39.73;37.88;41.61;;
40465;Laerm;30489;48.982;8.394;2024-03-17T09:11:56;39.73;38.05;41.38;;
40465;Laerm;30489;48.982;8.394;2024-03-17T09:14:06;39.78;38.05;41.46;;
40465;Laerm;30489;48.982;8.394;2024-03-17T09:16:16;39.81;38.05;41.38;;
40465;Laerm;30489;48.982;8.394;2024-03-17T09:18:32;39.82;37.70;41.61;;
40465;Laerm;30489;48.982;8.394;2024-03-17T09:20:42;39.84;37.88;41.30;;
40465;Laerm;30489;48.982;8.394;2024-03-17T09:22:52;39.86;38.05;41.61;;
40465;Laerm;30489;48.982;8.394;2024-03-17T09:25:04;39.85;38.05;41.61;;
40465;Laerm;30489;48.982;8.394;2024-03-17T09:27:14;39.87;38.18;41.33;;
40465;Laerm;30489;48.982;8.394;2024-03-17T09:29:29;39.90;38.05;41.46;;
40465;Laerm;30489;48.982;8.394;2024-03-17T09:31:39;39.90;37.88;41.22;;
40465;Laerm;30489;48.982;8.394;2024-03-17T09:33:51;39.93;38.21;41.75;;
40465;Laerm;30489;48.982;8.394;2024-03-17T09:36:10;39.94;38.05;41.22;;
40465;Laerm;30489;48.982;8.394;2024-03-17T09:38:22;40.00;38.05;41.68;;
40465;Laerm;30489;48.982;8.394;2024-03-17T09:40:33;40.05;38.21;41.53;;
40465;Laerm;30489;48.982;8.394;2024-03-17T09:42:43;40.10;38.52;41.61;;
40465;Laerm;30489;48.982;8.394;2024-03-17T09:44:54;40.11;38.47;41.53;;
40465;Laerm;30489;48.982;8.394;2024-03-17T09:47:06;40.07;38.21;41.46;;
40465;Laerm;30489;48.982;8.394;2024-03-17T09:49:17;40.14;38.52;41.68;;
40465;Laerm;30489;48.982;8.394;2024-03-17T09:51:27;40.15;38.52;41.61;;
40465;Laerm;30489;48.982;8.394;2024-03-17T09:53:37;40.14;38.52;41.61;;
40465;Laerm;30489;48.982;8.394;2024-03-17T09:55:48;40.15;38.21;41.61;;
40465;Laerm;30489;48.982;8.394;2024-03-17T09:57:58;40.19;38.52;41.46;;
40465;Laerm;30489;48.982;8.394;2024-03-17T10:00:12;40.19;38.52;41.61;;
40465;Laerm;30489;48.982;8.394;2024-03-17T10:02:26;40.20;38.37;41.61;;
40465;Laerm;30489;48.982;8.394;2024-03-17T10:04:36;40.23;38.52;41.75;;
40465;Laerm;30489;48.982;8.394;2024-03-17T10:06:47;40.20;38.52;41.61;;
40465;Laerm;30489;48.982;8.394;2024-03-17T10:08:57;40.23;38.37;41.68;;
40465;Laerm;30489;48.982;8.394;2024-03-17T10:11:08;40.26;38.67;41.61;;
40465;Laerm;30489;48.982;8.394;2024-03-17T10:13:18;40.29;38.67;41.89;;
40465;Laerm;30489;48.982;8.394;2024-03-17T10:15:29;40.30;38.67;41.75;;
40465;Laerm;30489;48.982;8.394;2024-03-17T10:17:39;40.33;38.52;41.89;;
40465;Laerm;30489;48.982;8.394;2024-03-17T10:19:49;40.38;38.67;41.89;;
40465;Laerm;30489;48.982;8.394;2024-03-17T10:22:00;40.46;38.95;41.75;;
40465;Laerm;30489;48.982;8.394;2024-03-17T10:24:11;40.51;38.67;41.96;;
40465;Laerm;30489;48.982;8.394;2024-03-17T10:26:22;40.52;38.95;41.89;;
40465;Laerm;30489;48.982;8.394;2024-03-17T10:28:32;40.53;38.52;41.96;;
40465;Laerm;30489;48.982;8.394;2024-03-17T10:30:56;40.48;38.95;41.82;;
40465;Laerm;30489;48.982;8.394;2024-03-17T10:33:07;40.48;38.67;41.82;;
40465;Laerm;30489;48.982;8.394;2024-03-17T10:35:28;40.46;38.67;41.89;;
40465;Laerm;30489;48.982;8.394;2024-03-17T10:37:39;40.44;38.81;41.82;;
40465;Laerm;30489;48.982;8.394;2024-03-17T10:40:03;40.53;38.67;41.75;;
40465;Laerm;30489;48.982;8.394;2024-03-17T10:42:13;40.54;38.67;41.68;;
40465;Laerm;30489;48.982;8.394;2024-03-17T10:44:24;40.54;38.60;41.82;;
40465;Laerm;30489;48.982;8.394;2024-03-17T10:46:34;40.56;39.08;41.82;;
40465;Laerm;30489;48.982;8.394;2024-03-17T10:48:44;40.54;38.81;41.82;;
40465;Laerm;30489;48.982;8.394;2024-03-17T10:50:56;40.53;38.67;41.96;;
40465;Laerm;30489;48.982;8.394;2024-03-17T10:53:08;40.54;39.08;41.82;;
40465;Laerm;30489;48.982;8.394;2024-03-17T10:57:38;40.67;39.08;41.96;;
40465;Laerm;30489;48.982;8.394;2024-03-17T10:59:52;40.75;39.08;42.09;;
40465;Laerm;30489;48.982;8.394;2024-03-17T11:02:02;40.74;38.81;41.96;;
40465;Laerm;30489;48.982;8.394;2024-03-17T11:04:13;40.73;38.95;42.03;;
40465;Laerm;30489;48.982;8.394;2024-03-17T11:06:23;40.74;39.21;42.03;;
40465;Laerm;30489;48.982;8.394;2024-03-17T11:08:34;40.78;39.08;41.96;;
40465;Laerm;30489;48.982;8.394;2024-03-17T11:10:49;40.76;39.08;42.03;;
40465;Laerm;30489;48.982;8.394;2024-03-17T11:13:00;40.79;39.46;42.16;;
40465;Laerm;30489;48.982;8.394;2024-03-17T11:17:36;40.86;39.21;42.03;;
40465;Laerm;30489;48.982;8.394;2024-03-17T11:20:05;40.85;39.21;42.09;;
40465;Laerm;30489;48.982;8.394;2024-03-17T11:24:47;40.88;39.08;42.03;;
40465;Laerm;30489;48.982;8.394;2024-03-17T11:26:57;40.89;39.34;42.09;;
40465;Laerm;30489;48.982;8.394;2024-03-17T11:29:23;40.93;39.46;42.09;;
40465;Laerm;30489;48.982;8.394;2024-03-17T11:31:37;41.13;39.70;42.35;;
40465;Laerm;30489;48.982;8.394;2024-03-17T11:33:50;41.36;39.81;42.47;;
40465;Laerm;30489;48.982;8.394;2024-03-17T11:43:27;41.51;40.13;42.65;;
40465;Laerm;30489;48.982;8.394;2024-03-17T11:45:38;41.65;40.53;42.65;;
40465;Laerm;30489;48.982;8.394;2024-03-17T11:47:48;41.69;40.43;42.71;;
40465;Laerm;30489;48.982;8.394;2024-03-17T11:49:58;41.69;40.53;42.76;;
40465;Laerm;30489;48.982;8.394;2024-03-17T11:52:12;41.63;40.33;42.88;;
40465;Laerm;30489;48.982;8.394;2024-03-17T11:54:23;41.64;40.36;42.71;;
40465;Laerm;30489;48.982;8.394;2024-03-17T11:56:35;41.62;40.03;42.93;;
40465;Laerm;30489;48.982;8.394;2024-03-17T11:58:45;41.61;40.03;42.88;;
40465;Laerm;30489;48.982;8.394;2024-03-17T12:00:55;41.55;40.33;42.82;;
40465;Laerm;30489;48.982;8.394;2024-03-17T12:03:05;41.64;40.43;42.98;;
40465;Laerm;30489;48.982;8.394;2024-03-17T12:05:19;41.64;40.33;42.88;;
40465;Laerm;30489;48.982;8.394;2024-03-17T12:07:31;41.69;40.43;42.76;;
40465;Laerm;30489;48.982;8.394;2024-03-17T12:09:42;41.66;40.43;42.76;;
40465;Laerm;30489;48.982;8.394;2024-03-17T12:12:08;41.68;40.33;42.88;;
40465;Laerm;30489;48.982;8.394;2024-03-17T12:14:19;41.69;40.33;42.82;;
40465;Laerm;30489;48.982;8.394;2024-03-17T12:16:29;41.70;40.62;42.88;;
40465;Laerm;30489;48.982;8.394;2024-03-17T12:18:39;41.69;40.53;42.85;;
40465;Laerm;30489;48.982;8.394;2024-03-17T12:20:51;41.63;40.23;42.71;;
40465;Laerm;30489;48.982;8.394;2024-03-17T12:23:01;41.68;40.03;42.93;;
40465;Laerm;30489;48.982;8.394;2024-03-17T12:25:20;41.65;40.23;42.88;;
40465;Laerm;30489;48.982;8.394;2024-03-17T12:27:33;41.64;40.23;42.71;;